sensor_id;sensor_type;location;lat;lon;timestamp;temperature;humidity
33865;DHT22;20159;51.072;13.526;2022-12-18T00:02:11;-8.40;82.20
33865;DHT22;20159;51.072;13.526;2022-12-18T00:04:37;-8.40;82.40
33865;DHT22;20159;51.072;13.526;2022-12-18T00:07:03;-8.40;82.50
33865;DHT22;20159;51.072;13.526;2022-12-18T00:09:28;-8.30;82.40
33865;DHT22;20159;51.072;13.526;2022-12-18T00:11:54;-8.40;82.50
33865;DHT22;20159;51.072;13.526;2022-12-18T00:14:20;-8.30;82.60
33865;DHT22;20159;51.072;13.526;2022-12-18T00:16:46;-8.40;82.90
33865;DHT22;20159;51.072;13.526;2022-12-18T00:19:13;-8.40;82.00
33865;DHT22;20159;51.072;13.526;2022-12-18T00:21:38;-8.40;82.30
33865;DHT22;20159;51.072;13.526;2022-12-18T00:24:06;-8.40;81.80
33865;DHT22;20159;51.072;13.526;2022-12-18T00:26:33;-8.40;81.20
33865;DHT22;20159;51.072;13.526;2022-12-18T00:29:09;-8.40;81.10
33865;DHT22;20159;51.072;13.526;2022-12-18T00:31:36;-8.50;81.10
33865;DHT22;20159;51.072;13.526;2022-12-18T00:34:02;-8.40;81.40
33865;DHT22;20159;51.072;13.526;2022-12-18T00:36:33;-8.50;81.00
33865;DHT22;20159;51.072;13.526;2022-12-18T00:39:00;-8.50;81.00
33865;DHT22;20159;51.072;13.526;2022-12-18T00:41:27;-8.50;81.30
33865;DHT22;20159;51.072;13.526;2022-12-18T00:44:13;-8.60;81.40
33865;DHT22;20159;51.072;13.526;2022-12-18T00:46:40;-8.60;81.50
33865;DHT22;20159;51.072;13.526;2022-12-18T00:49:06;-8.50;81.80
33865;DHT22;20159;51.072;13.526;2022-12-18T00:51:32;-8.60;81.40
33865;DHT22;20159;51.072;13.526;2022-12-18T00:53:58;-8.60;81.50
33865;DHT22;20159;51.072;13.526;2022-12-18T00:56:24;-8.60;81.40
33865;DHT22;20159;51.072;13.526;2022-12-18T00:58:50;-8.60;81.10
33865;DHT22;20159;51.072;13.526;2022-12-18T01:01:16;-8.60;80.50
33865;DHT22;20159;51.072;13.526;2022-12-18T01:03:42;-8.70;80.20
33865;DHT22;20159;51.072;13.526;2022-12-18T01:06:10;-8.70;80.20
33865;DHT22;20159;51.072;13.526;2022-12-18T01:08:38;-8.60;80.20
33865;DHT22;20159;51.072;13.526;2022-12-18T01:11:08;-8.70;80.10
33865;DHT22;20159;51.072;13.526;2022-12-18T01:13:34;-8.70;80.50
33865;DHT22;20159;51.072;13.526;2022-12-18T01:16:00;-8.70;80.90
33865;DHT22;20159;51.072;13.526;2022-12-18T01:18:26;-8.70;81.40
33865;DHT22;20159;51.072;13.526;2022-12-18T01:20:51;-8.70;81.70
33865;DHT22;20159;51.072;13.526;2022-12-18T01:23:17;-8.70;82.00
33865;DHT22;20159;51.072;13.526;2022-12-18T01:25:42;-8.70;82.20
33865;DHT22;20159;51.072;13.526;2022-12-18T01:28:08;-8.60;82.70
33865;DHT22;20159;51.072;13.526;2022-12-18T01:30:33;-8.70;82.90
33865;DHT22;20159;51.072;13.526;2022-12-18T01:32:59;-8.60;83.10
33865;DHT22;20159;51.072;13.526;2022-12-18T01:35:24;-8.60;83.10
33865;DHT22;20159;51.072;13.526;2022-12-18T01:37:54;-8.60;82.90
33865;DHT22;20159;51.072;13.526;2022-12-18T01:40:20;-8.60;83.00
33865;DHT22;20159;51.072;13.526;2022-12-18T01:42:53;-8.50;82.80
33865;DHT22;20159;51.072;13.526;2022-12-18T01:45:22;-8.50;82.60
33865;DHT22;20159;51.072;13.526;2022-12-18T01:48:08;-8.50;82.30
33865;DHT22;20159;51.072;13.526;2022-12-18T01:50:37;-8.50;82.10
33865;DHT22;20159;51.072;13.526;2022-12-18T01:53:11;-8.50;81.70
33865;DHT22;20159;51.072;13.526;2022-12-18T01:55:53;-8.50;81.90
33865;DHT22;20159;51.072;13.526;2022-12-18T01:58:27;-8.40;82.20
33865;DHT22;20159;51.072;13.526;2022-12-18T02:00:55;-8.00;82.30
33865;DHT22;20159;51.072;13.526;2022-12-18T02:03:21;-8.50;81.80
33865;DHT22;20159;51.072;13.526;2022-12-18T02:08:46;-8.50;82.00
33865;DHT22;20159;51.072;13.526;2022-12-18T02:16:56;-8.50;82.50
33865;DHT22;20159;51.072;13.526;2022-12-18T02:22:34;-8.50;82.70
33865;DHT22;20159;51.072;13.526;2022-12-18T02:25:21;-8.40;82.60
33865;DHT22;20159;51.072;13.526;2022-12-18T02:27:51;-8.40;82.40
33865;DHT22;20159;51.072;13.526;2022-12-18T02:30:18;-8.40;82.30
33865;DHT22;20159;51.072;13.526;2022-12-18T02:32:47;-8.40;82.10
33865;DHT22;20159;51.072;13.526;2022-12-18T02:35:19;-8.40;81.60
33865;DHT22;20159;51.072;13.526;2022-12-18T02:37:47;-8.40;81.90
33865;DHT22;20159;51.072;13.526;2022-12-18T02:40:14;-8.40;81.70
33865;DHT22;20159;51.072;13.526;2022-12-18T02:42:41;-8.40;81.60
33865;DHT22;20159;51.072;13.526;2022-12-18T02:45:07;-8.50;81.30
33865;DHT22;20159;51.072;13.526;2022-12-18T02:47:37;-8.50;81.60
33865;DHT22;20159;51.072;13.526;2022-12-18T02:50:45;-8.50;81.20
33865;DHT22;20159;51.072;13.526;2022-12-18T02:55:41;-8.50;81.50
33865;DHT22;20159;51.072;13.526;2022-12-18T03:01:15;-8.50;81.60
33865;DHT22;20159;51.072;13.526;2022-12-18T03:03:56;-8.60;81.70
33865;DHT22;20159;51.072;13.526;2022-12-18T03:06:44;-8.50;81.60
33865;DHT22;20159;51.072;13.526;2022-12-18T03:09:16;-8.60;81.70
33865;DHT22;20159;51.072;13.526;2022-12-18T03:11:48;-8.60;81.50
33865;DHT22;20159;51.072;13.526;2022-12-18T03:14:38;-8.60;81.10
33865;DHT22;20159;51.072;13.526;2022-12-18T03:17:09;-8.60;80.80
33865;DHT22;20159;51.072;13.526;2022-12-18T03:19:35;-8.70;80.30
33865;DHT22;20159;51.072;13.526;2022-12-18T03:22:05;-8.70;80.10
33865;DHT22;20159;51.072;13.526;2022-12-18T03:24:32;-8.70;80.30
33865;DHT22;20159;51.072;13.526;2022-12-18T03:27:01;-8.70;80.40
33865;DHT22;20159;51.072;13.526;2022-12-18T03:29:33;-8.80;80.40
33865;DHT22;20159;51.072;13.526;2022-12-18T03:32:08;-8.80;80.40
33865;DHT22;20159;51.072;13.526;2022-12-18T03:34:37;-8.80;80.30
33865;DHT22;20159;51.072;13.526;2022-12-18T03:37:05;-8.90;80.30
33865;DHT22;20159;51.072;13.526;2022-12-18T03:39:31;-8.90;80.60
33865;DHT22;20159;51.072;13.526;2022-12-18T03:42:15;-8.90;80.80
33865;DHT22;20159;51.072;13.526;2022-12-18T03:45:09;-8.90;81.10
33865;DHT22;20159;51.072;13.526;2022-12-18T03:47:47;-8.90;81.20
33865;DHT22;20159;51.072;13.526;2022-12-18T03:50:19;-8.90;81.30
33865;DHT22;20159;51.072;13.526;2022-12-18T03:52:59;-9.00;81.30
33865;DHT22;20159;51.072;13.526;2022-12-18T03:55:27;-8.90;81.40
33865;DHT22;20159;51.072;13.526;2022-12-18T03:57:54;-8.90;81.30
33865;DHT22;20159;51.072;13.526;2022-12-18T04:00:20;-8.90;81.20
33865;DHT22;20159;51.072;13.526;2022-12-18T04:02:51;-8.90;81.40
33865;DHT22;20159;51.072;13.526;2022-12-18T04:05:20;-9.00;81.50
33865;DHT22;20159;51.072;13.526;2022-12-18T04:07:48;-8.90;81.50
33865;DHT22;20159;51.072;13.526;2022-12-18T04:10:14;-8.90;81.50
33865;DHT22;20159;51.072;13.526;2022-12-18T04:12:41;-6.90;82.40
33865;DHT22;20159;51.072;13.526;2022-12-18T04:15:07;-9.00;81.10
33865;DHT22;20159;51.072;13.526;2022-12-18T04:17:33;-9.00;81.00
33865;DHT22;20159;51.072;13.526;2022-12-18T04:19:58;-9.00;80.90
33865;DHT22;20159;51.072;13.526;2022-12-18T04:22:24;-9.00;80.80
33865;DHT22;20159;51.072;13.526;2022-12-18T04:24:49;-9.00;80.60
33865;DHT22;20159;51.072;13.526;2022-12-18T04:27:15;-9.00;80.40
33865;DHT22;20159;51.072;13.526;2022-12-18T04:29:41;-9.00;80.40
33865;DHT22;20159;51.072;13.526;2022-12-18T04:32:07;-9.10;80.50
33865;DHT22;20159;51.072;13.526;2022-12-18T04:34:33;-9.10;80.40
33865;DHT22;20159;51.072;13.526;2022-12-18T04:36:58;-9.10;80.20
33865;DHT22;20159;51.072;13.526;2022-12-18T04:39:24;-9.10;80.10
33865;DHT22;20159;51.072;13.526;2022-12-18T04:41:49;-7.40;80.90
33865;DHT22;20159;51.072;13.526;2022-12-18T04:44:15;-9.20;79.80
33865;DHT22;20159;51.072;13.526;2022-12-18T04:46:41;-9.20;79.70
33865;DHT22;20159;51.072;13.526;2022-12-18T04:49:06;-9.00;80.00
33865;DHT22;20159;51.072;13.526;2022-12-18T04:51:32;-9.30;80.10
33865;DHT22;20159;51.072;13.526;2022-12-18T04:53:57;-9.30;80.30
33865;DHT22;20159;51.072;13.526;2022-12-18T04:56:23;-9.30;80.50
33865;DHT22;20159;51.072;13.526;2022-12-18T04:58:48;-9.30;80.80
33865;DHT22;20159;51.072;13.526;2022-12-18T05:01:15;-9.30;80.70
33865;DHT22;20159;51.072;13.526;2022-12-18T05:03:41;-9.30;80.60
33865;DHT22;20159;51.072;13.526;2022-12-18T05:06:07;-9.40;79.90
33865;DHT22;20159;51.072;13.526;2022-12-18T05:08:33;-9.40;80.30
33865;DHT22;20159;51.072;13.526;2022-12-18T05:11:04;-9.40;80.30
33865;DHT22;20159;51.072;13.526;2022-12-18T05:13:30;-9.40;80.00
33865;DHT22;20159;51.072;13.526;2022-12-18T05:15:56;-9.40;79.90
33865;DHT22;20159;51.072;13.526;2022-12-18T05:18:25;-9.40;79.90
33865;DHT22;20159;51.072;13.526;2022-12-18T05:20:52;-6.20;81.90
33865;DHT22;20159;51.072;13.526;2022-12-18T05:23:18;-9.50;80.30
33865;DHT22;20159;51.072;13.526;2022-12-18T05:25:51;-9.50;80.00
33865;DHT22;20159;51.072;13.526;2022-12-18T05:28:17;-9.50;80.20
33865;DHT22;20159;51.072;13.526;2022-12-18T05:30:42;-9.60;80.60
33865;DHT22;20159;51.072;13.526;2022-12-18T05:33:08;-9.50;80.40
33865;DHT22;20159;51.072;13.526;2022-12-18T05:35:33;-9.60;80.30
33865;DHT22;20159;51.072;13.526;2022-12-18T05:37:59;-9.60;80.10
33865;DHT22;20159;51.072;13.526;2022-12-18T05:40:24;-9.60;79.90
33865;DHT22;20159;51.072;13.526;2022-12-18T05:42:50;-7.20;81.00
33865;DHT22;20159;51.072;13.526;2022-12-18T05:45:16;-9.70;79.40
33865;DHT22;20159;51.072;13.526;2022-12-18T05:47:41;-9.70;79.00
33865;DHT22;20159;51.072;13.526;2022-12-18T05:50:07;-9.70;79.30
33865;DHT22;20159;51.072;13.526;2022-12-18T05:52:33;-9.70;79.50
33865;DHT22;20159;51.072;13.526;2022-12-18T05:54:58;-9.80;79.60
33865;DHT22;20159;51.072;13.526;2022-12-18T05:57:24;-9.80;80.20
33865;DHT22;20159;51.072;13.526;2022-12-18T05:59:50;-13.10;78.70
33865;DHT22;20159;51.072;13.526;2022-12-18T06:02:15;-9.80;80.60
33865;DHT22;20159;51.072;13.526;2022-12-18T06:04:41;-9.80;80.80
33865;DHT22;20159;51.072;13.526;2022-12-18T06:07:06;-9.80;80.90
33865;DHT22;20159;51.072;13.526;2022-12-18T06:09:32;-9.80;80.90
33865;DHT22;20159;51.072;13.526;2022-12-18T06:11:57;-9.80;80.80
33865;DHT22;20159;51.072;13.526;2022-12-18T06:14:23;-9.80;80.60
33865;DHT22;20159;51.072;13.526;2022-12-18T06:16:50;-9.80;80.50
33865;DHT22;20159;51.072;13.526;2022-12-18T06:19:17;-9.80;80.20
33865;DHT22;20159;51.072;13.526;2022-12-18T06:21:42;-9.80;80.10
33865;DHT22;20159;51.072;13.526;2022-12-18T06:24:08;-9.80;79.60
33865;DHT22;20159;51.072;13.526;2022-12-18T06:26:34;-9.90;79.30
33865;DHT22;20159;51.072;13.526;2022-12-18T06:29:01;-9.90;79.20
33865;DHT22;20159;51.072;13.526;2022-12-18T06:31:27;-9.90;79.20
33865;DHT22;20159;51.072;13.526;2022-12-18T06:33:52;-10.00;79.20
33865;DHT22;20159;51.072;13.526;2022-12-18T06:36:18;-10.00;79.10
33865;DHT22;20159;51.072;13.526;2022-12-18T06:38:45;-10.00;79.30
33865;DHT22;20159;51.072;13.526;2022-12-18T06:41:16;-10.00;79.20
33865;DHT22;20159;51.072;13.526;2022-12-18T06:43:42;-10.10;78.70
33865;DHT22;20159;51.072;13.526;2022-12-18T06:46:08;-10.20;78.20
33865;DHT22;20159;51.072;13.526;2022-12-18T06:48:34;-10.10;78.60
33865;DHT22;20159;51.072;13.526;2022-12-18T06:51:00;-10.20;78.20
33865;DHT22;20159;51.072;13.526;2022-12-18T06:53:26;-10.20;78.60
33865;DHT22;20159;51.072;13.526;2022-12-18T06:55:51;-10.20;78.70
33865;DHT22;20159;51.072;13.526;2022-12-18T06:58:17;-10.20;79.00
33865;DHT22;20159;51.072;13.526;2022-12-18T07:00:43;-10.20;79.30
33865;DHT22;20159;51.072;13.526;2022-12-18T07:03:09;-10.30;79.30
33865;DHT22;20159;51.072;13.526;2022-12-18T07:05:39;-10.30;79.60
33865;DHT22;20159;51.072;13.526;2022-12-18T07:08:05;-9.10;80.20
33865;DHT22;20159;51.072;13.526;2022-12-18T07:10:31;-10.30;79.20
33865;DHT22;20159;51.072;13.526;2022-12-18T07:12:57;-10.30;78.80
33865;DHT22;20159;51.072;13.526;2022-12-18T07:15:22;-10.30;79.20
33865;DHT22;20159;51.072;13.526;2022-12-18T07:17:48;-10.30;79.00
33865;DHT22;20159;51.072;13.526;2022-12-18T07:20:13;-10.20;79.20
33865;DHT22;20159;51.072;13.526;2022-12-18T07:22:39;-10.30;79.30
33865;DHT22;20159;51.072;13.526;2022-12-18T07:25:05;-10.30;79.30
33865;DHT22;20159;51.072;13.526;2022-12-18T07:27:31;-6.90;81.30
33865;DHT22;20159;51.072;13.526;2022-12-18T07:29:56;-10.30;79.70
33865;DHT22;20159;51.072;13.526;2022-12-18T07:32:22;-10.30;80.00
33865;DHT22;20159;51.072;13.526;2022-12-18T07:34:47;-10.30;80.10
33865;DHT22;20159;51.072;13.526;2022-12-18T07:37:13;-10.20;80.40
33865;DHT22;20159;51.072;13.526;2022-12-18T07:39:39;-10.20;80.30
33865;DHT22;20159;51.072;13.526;2022-12-18T07:42:07;-10.20;80.60
33865;DHT22;20159;51.072;13.526;2022-12-18T07:44:51;-10.10;80.70
33865;DHT22;20159;51.072;13.526;2022-12-18T07:47:17;-10.00;81.00
33865;DHT22;20159;51.072;13.526;2022-12-18T07:49:43;-9.90;81.50
33865;DHT22;20159;51.072;13.526;2022-12-18T07:52:08;-9.80;82.20
33865;DHT22;20159;51.072;13.526;2022-12-18T07:54:34;-9.60;83.40
33865;DHT22;20159;51.072;13.526;2022-12-18T07:57:00;-9.40;85.00
33865;DHT22;20159;51.072;13.526;2022-12-18T07:59:25;-9.10;86.60
33865;DHT22;20159;51.072;13.526;2022-12-18T08:01:51;-8.60;88.10
33865;DHT22;20159;51.072;13.526;2022-12-18T08:04:17;-8.10;89.70
33865;DHT22;20159;51.072;13.526;2022-12-18T08:06:42;-7.20;90.60
33865;DHT22;20159;51.072;13.526;2022-12-18T08:09:09;-7.10;90.70
33865;DHT22;20159;51.072;13.526;2022-12-18T08:11:35;-6.60;90.80
33865;DHT22;20159;51.072;13.526;2022-12-18T08:14:01;-6.10;90.70
33865;DHT22;20159;51.072;13.526;2022-12-18T08:16:27;-5.60;90.50
33865;DHT22;20159;51.072;13.526;2022-12-18T08:18:53;-5.10;90.50
33865;DHT22;20159;51.072;13.526;2022-12-18T08:21:22;-4.60;90.30
33865;DHT22;20159;51.072;13.526;2022-12-18T08:23:49;-4.10;89.80
33865;DHT22;20159;51.072;13.526;2022-12-18T08:26:16;-3.70;89.30
33865;DHT22;20159;51.072;13.526;2022-12-18T08:28:42;-3.20;88.80
33865;DHT22;20159;51.072;13.526;2022-12-18T08:31:08;-2.70;88.30
33865;DHT22;20159;51.072;13.526;2022-12-18T08:33:34;-2.30;87.60
33865;DHT22;20159;51.072;13.526;2022-12-18T08:36:00;-2.00;85.30
33865;DHT22;20159;51.072;13.526;2022-12-18T08:38:27;-1.80;82.90
33865;DHT22;20159;51.072;13.526;2022-12-18T08:41:12;-1.70;80.80
33865;DHT22;20159;51.072;13.526;2022-12-18T08:43:38;-1.70;78.30
33865;DHT22;20159;51.072;13.526;2022-12-18T08:46:26;-1.80;78.20
33865;DHT22;20159;51.072;13.526;2022-12-18T08:48:53;-1.90;77.20
33865;DHT22;20159;51.072;13.526;2022-12-18T08:51:19;-2.00;77.00
33865;DHT22;20159;51.072;13.526;2022-12-18T08:53:46;-2.20;77.00
33865;DHT22;20159;51.072;13.526;2022-12-18T08:56:12;-2.40;76.70
33865;DHT22;20159;51.072;13.526;2022-12-18T08:58:38;-2.50;76.70
33865;DHT22;20159;51.072;13.526;2022-12-18T09:01:06;-2.70;76.80
33865;DHT22;20159;51.072;13.526;2022-12-18T09:03:32;-2.80;76.90
33865;DHT22;20159;51.072;13.526;2022-12-18T09:05:58;-2.90;77.40
33865;DHT22;20159;51.072;13.526;2022-12-18T09:08:25;-3.00;78.30
33865;DHT22;20159;51.072;13.526;2022-12-18T09:10:51;-2.80;80.20
33865;DHT22;20159;51.072;13.526;2022-12-18T09:13:17;-2.60;83.60
33865;DHT22;20159;51.072;13.526;2022-12-18T09:15:45;-2.10;87.60
33865;DHT22;20159;51.072;13.526;2022-12-18T09:18:11;-1.50;89.80
33865;DHT22;20159;51.072;13.526;2022-12-18T09:20:38;-0.90;89.20
33865;DHT22;20159;51.072;13.526;2022-12-18T09:23:05;-0.30;89.90
33865;DHT22;20159;51.072;13.526;2022-12-18T09:25:31;0.40;90.50
33865;DHT22;20159;51.072;13.526;2022-12-18T09:27:59;1.10;89.40
33865;DHT22;20159;51.072;13.526;2022-12-18T09:30:26;1.80;87.80
33865;DHT22;20159;51.072;13.526;2022-12-18T09:32:51;2.40;86.30
33865;DHT22;20159;51.072;13.526;2022-12-18T09:35:17;3.00;84.70
33865;DHT22;20159;51.072;13.526;2022-12-18T09:37:42;3.40;82.40
33865;DHT22;20159;51.072;13.526;2022-12-18T09:40:14;3.90;80.60
33865;DHT22;20159;51.072;13.526;2022-12-18T09:42:40;4.20;76.80
33865;DHT22;20159;51.072;13.526;2022-12-18T09:45:08;4.50;76.60
33865;DHT22;20159;51.072;13.526;2022-12-18T09:47:39;4.80;75.10
33865;DHT22;20159;51.072;13.526;2022-12-18T09:50:26;5.00;76.00
33865;DHT22;20159;51.072;13.526;2022-12-18T09:52:57;5.30;74.40
33865;DHT22;20159;51.072;13.526;2022-12-18T09:57:55;5.70;72.90
33865;DHT22;20159;51.072;13.526;2022-12-18T10:00:23;5.90;72.50
33865;DHT22;20159;51.072;13.526;2022-12-18T10:02:58;6.10;72.10
33865;DHT22;20159;51.072;13.526;2022-12-18T10:05:43;6.30;69.50
33865;DHT22;20159;51.072;13.526;2022-12-18T10:08:24;6.40;68.20
33865;DHT22;20159;51.072;13.526;2022-12-18T10:10:53;6.50;68.70
33865;DHT22;20159;51.072;13.526;2022-12-18T10:15:51;6.60;69.70
33865;DHT22;20159;51.072;13.526;2022-12-18T10:21:17;6.80;67.30
33865;DHT22;20159;51.072;13.526;2022-12-18T10:24:02;6.90;67.60
33865;DHT22;20159;51.072;13.526;2022-12-18T10:26:31;6.80;67.40
33865;DHT22;20159;51.072;13.526;2022-12-18T10:28:58;6.80;65.60
33865;DHT22;20159;51.072;13.526;2022-12-18T10:31:24;6.70;65.30
33865;DHT22;20159;51.072;13.526;2022-12-18T10:33:51;6.60;65.10
33865;DHT22;20159;51.072;13.526;2022-12-18T10:36:16;6.60;64.50
33865;DHT22;20159;51.072;13.526;2022-12-18T10:38:42;6.60;64.70
33865;DHT22;20159;51.072;13.526;2022-12-18T10:41:25;6.50;64.30
33865;DHT22;20159;51.072;13.526;2022-12-18T10:44:19;6.50;61.60
33865;DHT22;20159;51.072;13.526;2022-12-18T10:46:47;6.50;61.80
33865;DHT22;20159;51.072;13.526;2022-12-18T10:49:26;6.40;62.70
33865;DHT22;20159;51.072;13.526;2022-12-18T10:52:06;6.30;61.60
33865;DHT22;20159;51.072;13.526;2022-12-18T10:54:33;6.20;60.80
33865;DHT22;20159;51.072;13.526;2022-12-18T10:57:32;6.00;61.90
33865;DHT22;20159;51.072;13.526;2022-12-18T11:00:18;5.80;60.70
33865;DHT22;20159;51.072;13.526;2022-12-18T11:02:45;5.60;61.70
33865;DHT22;20159;51.072;13.526;2022-12-18T11:07:50;5.40;62.10
33865;DHT22;20159;51.072;13.526;2022-12-18T11:10:18;5.40;63.20
33865;DHT22;20159;51.072;13.526;2022-12-18T11:12:44;5.40;63.10
33865;DHT22;20159;51.072;13.526;2022-12-18T11:15:27;5.30;62.40
33865;DHT22;20159;51.072;13.526;2022-12-18T11:17:54;5.10;61.40
33865;DHT22;20159;51.072;13.526;2022-12-18T11:20:35;5.00;62.10
33865;DHT22;20159;51.072;13.526;2022-12-18T11:23:12;4.80;61.20
33865;DHT22;20159;51.072;13.526;2022-12-18T11:25:39;4.70;63.20
33865;DHT22;20159;51.072;13.526;2022-12-18T11:28:25;4.70;63.30
33865;DHT22;20159;51.072;13.526;2022-12-18T11:31:19;4.70;62.40
33865;DHT22;20159;51.072;13.526;2022-12-18T11:36:30;4.70;62.90
33865;DHT22;20159;51.072;13.526;2022-12-18T11:39:02;4.80;63.90
33865;DHT22;20159;51.072;13.526;2022-12-18T11:41:48;4.80;63.90
33865;DHT22;20159;51.072;13.526;2022-12-18T11:44:53;4.80;63.20
33865;DHT22;20159;51.072;13.526;2022-12-18T11:53:02;4.90;63.00
33865;DHT22;20159;51.072;13.526;2022-12-18T11:55:47;4.80;64.00
33865;DHT22;20159;51.072;13.526;2022-12-18T11:58:40;4.70;64.10
33865;DHT22;20159;51.072;13.526;2022-12-18T12:04:18;4.50;63.50
33865;DHT22;20159;51.072;13.526;2022-12-18T12:06:56;4.40;63.70
33865;DHT22;20159;51.072;13.526;2022-12-18T12:09:32;4.40;63.90
33865;DHT22;20159;51.072;13.526;2022-12-18T12:15:06;4.60;64.30
33865;DHT22;20159;51.072;13.526;2022-12-18T12:18:13;4.70;63.90
33865;DHT22;20159;51.072;13.526;2022-12-18T12:26:13;4.90;64.50
33865;DHT22;20159;51.072;13.526;2022-12-18T12:28:55;4.90;64.30
33865;DHT22;20159;51.072;13.526;2022-12-18T12:37:16;5.00;63.00
33865;DHT22;20159;51.072;13.526;2022-12-18T12:39:46;4.40;63.40
33865;DHT22;20159;51.072;13.526;2022-12-18T12:42:34;4.90;63.50
33865;DHT22;20159;51.072;13.526;2022-12-18T12:45:28;4.80;61.90
33865;DHT22;20159;51.072;13.526;2022-12-18T12:47:57;4.80;62.90
33865;DHT22;20159;51.072;13.526;2022-12-18T12:50:25;4.70;62.80
33865;DHT22;20159;51.072;13.526;2022-12-18T12:52:53;4.60;62.50
33865;DHT22;20159;51.072;13.526;2022-12-18T12:55:25;4.60;62.40
33865;DHT22;20159;51.072;13.526;2022-12-18T13:00:37;4.40;62.30
33865;DHT22;20159;51.072;13.526;2022-12-18T13:03:08;4.40;62.80
33865;DHT22;20159;51.072;13.526;2022-12-18T13:05:48;4.30;62.80
33865;DHT22;20159;51.072;13.526;2022-12-18T13:08:25;7.00;63.60
33865;DHT22;20159;51.072;13.526;2022-12-18T13:10:53;5.30;63.50
33865;DHT22;20159;51.072;13.526;2022-12-18T13:13:52;4.20;62.40
33865;DHT22;20159;51.072;13.526;2022-12-18T13:16:20;1.50;60.80
33865;DHT22;20159;51.072;13.526;2022-12-18T13:18:51;3.90;62.30
33865;DHT22;20159;51.072;13.526;2022-12-18T13:21:30;3.70;62.20
33865;DHT22;20159;51.072;13.526;2022-12-18T13:23:56;3.50;62.00
33865;DHT22;20159;51.072;13.526;2022-12-18T13:26:33;3.30;62.20
33865;DHT22;20159;51.072;13.526;2022-12-18T13:29:00;3.10;62.40
33865;DHT22;20159;51.072;13.526;2022-12-18T13:34:21;2.80;62.90
33865;DHT22;20159;51.072;13.526;2022-12-18T13:36:47;2.60;63.00
33865;DHT22;20159;51.072;13.526;2022-12-18T13:41:48;2.30;62.60
33865;DHT22;20159;51.072;13.526;2022-12-18T13:44:36;2.20;63.10
33865;DHT22;20159;51.072;13.526;2022-12-18T13:47:04;2.10;63.00
33865;DHT22;20159;51.072;13.526;2022-12-18T13:49:39;2.00;63.80
33865;DHT22;20159;51.072;13.526;2022-12-18T13:52:35;1.90;64.50
33865;DHT22;20159;51.072;13.526;2022-12-18T13:55:04;1.80;64.70
33865;DHT22;20159;51.072;13.526;2022-12-18T13:57:33;1.80;64.60
33865;DHT22;20159;51.072;13.526;2022-12-18T14:00:26;1.70;65.50
33865;DHT22;20159;51.072;13.526;2022-12-18T14:02:53;1.60;65.70
33865;DHT22;20159;51.072;13.526;2022-12-18T14:05:22;1.60;65.40
33865;DHT22;20159;51.072;13.526;2022-12-18T14:07:48;1.50;65.30
33865;DHT22;20159;51.072;13.526;2022-12-18T14:10:15;1.40;65.50
33865;DHT22;20159;51.072;13.526;2022-12-18T14:12:46;1.30;65.70
33865;DHT22;20159;51.072;13.526;2022-12-18T14:15:28;3.70;67.20
33865;DHT22;20159;51.072;13.526;2022-12-18T14:17:58;1.10;65.90
33865;DHT22;20159;51.072;13.526;2022-12-18T14:20:25;1.00;65.70
33865;DHT22;20159;51.072;13.526;2022-12-18T14:22:51;0.90;65.80
33865;DHT22;20159;51.072;13.526;2022-12-18T14:25:35;0.70;65.90
33865;DHT22;20159;51.072;13.526;2022-12-18T14:33:10;0.30;66.00
33865;DHT22;20159;51.072;13.526;2022-12-18T14:35:39;0.10;66.30
33865;DHT22;20159;51.072;13.526;2022-12-18T14:38:21;0.00;66.70
33865;DHT22;20159;51.072;13.526;2022-12-18T14:40:48;-0.10;67.20
33865;DHT22;20159;51.072;13.526;2022-12-18T14:43:16;-0.20;67.70
33865;DHT22;20159;51.072;13.526;2022-12-18T14:45:43;-0.40;67.80
33865;DHT22;20159;51.072;13.526;2022-12-18T14:48:18;-0.50;67.90
33865;DHT22;20159;51.072;13.526;2022-12-18T14:50:45;-0.60;68.60
33865;DHT22;20159;51.072;13.526;2022-12-18T14:53:23;-0.70;68.90
33865;DHT22;20159;51.072;13.526;2022-12-18T14:55:49;-0.90;68.80
33865;DHT22;20159;51.072;13.526;2022-12-18T14:58:16;-1.00;69.40
33865;DHT22;20159;51.072;13.526;2022-12-18T15:00:42;-1.10;69.80
33865;DHT22;20159;51.072;13.526;2022-12-18T15:03:09;-1.20;70.10
33865;DHT22;20159;51.072;13.526;2022-12-18T15:05:35;-1.30;70.30
33865;DHT22;20159;51.072;13.526;2022-12-18T15:08:01;-1.40;70.50
33865;DHT22;20159;51.072;13.526;2022-12-18T15:10:34;-1.40;70.90
33865;DHT22;20159;51.072;13.526;2022-12-18T15:23:25;-1.90;71.90
33865;DHT22;20159;51.072;13.526;2022-12-18T15:28:29;-2.10;72.20
33865;DHT22;20159;51.072;13.526;2022-12-18T15:31:20;-2.20;72.20
33865;DHT22;20159;51.072;13.526;2022-12-18T15:36:21;-2.50;72.40
33865;DHT22;20159;51.072;13.526;2022-12-18T15:38:48;-2.40;72.50
33865;DHT22;20159;51.072;13.526;2022-12-18T15:41:19;-2.40;72.70
33865;DHT22;20159;51.072;13.526;2022-12-18T15:43:47;-2.50;72.80
33865;DHT22;20159;51.072;13.526;2022-12-18T15:46:20;-2.60;72.80
33865;DHT22;20159;51.072;13.526;2022-12-18T15:48:48;-2.70;73.00
33865;DHT22;20159;51.072;13.526;2022-12-18T15:51:20;-2.80;73.30
33865;DHT22;20159;51.072;13.526;2022-12-18T15:53:47;-2.80;73.30
33865;DHT22;20159;51.072;13.526;2022-12-18T15:56:15;-2.80;73.40
33865;DHT22;20159;51.072;13.526;2022-12-18T15:59:00;-2.90;73.50
33865;DHT22;20159;51.072;13.526;2022-12-18T16:01:29;-3.00;73.50
33865;DHT22;20159;51.072;13.526;2022-12-18T16:03:55;-3.00;73.90
33865;DHT22;20159;51.072;13.526;2022-12-18T16:06:21;-3.10;74.10
33865;DHT22;20159;51.072;13.526;2022-12-18T16:08:47;-3.10;74.40
33865;DHT22;20159;51.072;13.526;2022-12-18T16:16:42;-3.20;75.00
33865;DHT22;20159;51.072;13.526;2022-12-18T16:19:08;-3.30;74.90
33865;DHT22;20159;51.072;13.526;2022-12-18T16:21:34;-3.30;75.00
33865;DHT22;20159;51.072;13.526;2022-12-18T16:23:59;-3.30;75.30
33865;DHT22;20159;51.072;13.526;2022-12-18T16:26:25;-3.30;75.40
33865;DHT22;20159;51.072;13.526;2022-12-18T16:28:50;-3.40;75.40
33865;DHT22;20159;51.072;13.526;2022-12-18T16:31:16;-3.40;75.50
33865;DHT22;20159;51.072;13.526;2022-12-18T16:33:41;-3.40;75.60
33865;DHT22;20159;51.072;13.526;2022-12-18T16:36:07;-3.40;75.70
33865;DHT22;20159;51.072;13.526;2022-12-18T16:38:33;-3.40;75.80
33865;DHT22;20159;51.072;13.526;2022-12-18T16:40:58;-3.40;76.00
33865;DHT22;20159;51.072;13.526;2022-12-18T16:43:59;-3.40;76.00
33865;DHT22;20159;51.072;13.526;2022-12-18T16:46:25;-3.40;75.90
33865;DHT22;20159;51.072;13.526;2022-12-18T16:48:51;-3.20;76.20
33865;DHT22;20159;51.072;13.526;2022-12-18T16:51:16;-3.40;76.20
33865;DHT22;20159;51.072;13.526;2022-12-18T16:53:42;-3.40;76.20
33865;DHT22;20159;51.072;13.526;2022-12-18T16:56:07;-3.40;76.30
33865;DHT22;20159;51.072;13.526;2022-12-18T16:58:33;-3.40;76.50
33865;DHT22;20159;51.072;13.526;2022-12-18T17:00:58;-3.30;76.90
33865;DHT22;20159;51.072;13.526;2022-12-18T17:03:24;-3.30;76.20
33865;DHT22;20159;51.072;13.526;2022-12-18T17:05:50;-3.30;76.20